sensor_id;sensor_type;location;lat;lon;timestamp;P1;durP1;ratioP1;P2;durP2;ratioP2
79149;SDS011;68563;45.644;13.782;2024-02-26T00:00:29;5.35;;;2.22;;
79149;SDS011;68563;45.644;13.782;2024-02-26T00:02:55;3.33;;;2.03;;
79149;SDS011;68563;45.644;13.782;2024-02-26T00:05:20;7.18;;;2.50;;
79149;SDS011;68563;45.644;13.782;2024-02-26T00:07:46;6.90;;;2.30;;
79149;SDS011;68563;45.644;13.782;2024-02-26T00:10:12;5.32;;;2.10;;
79149;SDS011;68563;45.644;13.782;2024-02-26T00:12:38;4.70;;;1.83;;
79149;SDS011;68563;45.644;13.782;2024-02-26T00:15:04;3.95;;;1.90;;
79149;SDS011;68563;45.644;13.782;2024-02-26T00:17:33;6.20;;;1.80;;
79149;SDS011;68563;45.644;13.782;2024-02-26T00:19:58;5.90;;;1.67;;
79149;SDS011;68563;45.644;13.782;2024-02-26T00:22:25;3.70;;;1.80;;
79149;SDS011;68563;45.644;13.782;2024-02-26T00:24:51;4.25;;;1.83;;
79149;SDS011;68563;45.644;13.782;2024-02-26T00:27:16;6.78;;;1.52;;
79149;SDS011;68563;45.644;13.782;2024-02-26T00:29:42;3.15;;;1.70;;
79149;SDS011;68563;45.644;13.782;2024-02-26T00:32:07;4.22;;;1.38;;
79149;SDS011;68563;45.644;13.782;2024-02-26T00:34:33;4.88;;;1.63;;
79149;SDS011;68563;45.644;13.782;2024-02-26T00:36:58;4.03;;;1.55;;
79149;SDS011;68563;45.644;13.782;2024-02-26T00:39:23;4.03;;;1.60;;
79149;SDS011;68563;45.644;13.782;2024-02-26T00:41:49;3.40;;;1.60;;
79149;SDS011;68563;45.644;13.782;2024-02-26T00:44:16;3.30;;;1.58;;
79149;SDS011;68563;45.644;13.782;2024-02-26T00:46:42;2.65;;;1.50;;
79149;SDS011;68563;45.644;13.782;2024-02-26T00:49:07;4.65;;;1.70;;
79149;SDS011;68563;45.644;13.782;2024-02-26T00:51:32;3.17;;;1.50;;
79149;SDS011;68563;45.644;13.782;2024-02-26T00:53:58;6.03;;;1.90;;
79149;SDS011;68563;45.644;13.782;2024-02-26T00:56:23;3.90;;;2.00;;
79149;SDS011;68563;45.644;13.782;2024-02-26T00:58:49;6.95;;;1.67;;
79149;SDS011;68563;45.644;13.782;2024-02-26T01:01:14;4.47;;;1.60;;
79149;SDS011;68563;45.644;13.782;2024-02-26T01:03:40;4.70;;;1.33;;
79149;SDS011;68563;45.644;13.782;2024-02-26T01:06:05;2.75;;;1.50;;
79149;SDS011;68563;45.644;13.782;2024-02-26T01:08:30;4.35;;;1.67;;
79149;SDS011;68563;45.644;13.782;2024-02-26T01:10:56;4.32;;;1.42;;
79149;SDS011;68563;45.644;13.782;2024-02-26T01:13:22;3.47;;;1.23;;
79149;SDS011;68563;45.644;13.782;2024-02-26T01:15:47;4.30;;;1.50;;
79149;SDS011;68563;45.644;13.782;2024-02-26T01:18:13;3.85;;;1.35;;
79149;SDS011;68563;45.644;13.782;2024-02-26T01:20:38;2.58;;;1.40;;
79149;SDS011;68563;45.644;13.782;2024-02-26T01:23:04;5.22;;;1.70;;
79149;SDS011;68563;45.644;13.782;2024-02-26T01:25:29;4.75;;;1.40;;
79149;SDS011;68563;45.644;13.782;2024-02-26T01:27:55;3.58;;;1.52;;
79149;SDS011;68563;45.644;13.782;2024-02-26T01:30:20;5.50;;;1.60;;
79149;SDS011;68563;45.644;13.782;2024-02-26T01:32:46;4.10;;;1.42;;
79149;SDS011;68563;45.644;13.782;2024-02-26T01:35:11;5.28;;;1.70;;
79149;SDS011;68563;45.644;13.782;2024-02-26T01:37:37;3.30;;;1.70;;
79149;SDS011;68563;45.644;13.782;2024-02-26T01:40:03;3.05;;;1.70;;
79149;SDS011;68563;45.644;13.782;2024-02-26T01:42:29;7.90;;;1.58;;
79149;SDS011;68563;45.644;13.782;2024-02-26T01:44:56;4.07;;;1.77;;
79149;SDS011;68563;45.644;13.782;2024-02-26T01:47:21;4.57;;;1.65;;
79149;SDS011;68563;45.644;13.782;2024-02-26T01:49:48;4.22;;;1.55;;
79149;SDS011;68563;45.644;13.782;2024-02-26T01:52:13;5.32;;;1.52;;
79149;SDS011;68563;45.644;13.782;2024-02-26T01:54:39;4.88;;;1.70;;
79149;SDS011;68563;45.644;13.782;2024-02-26T01:57:06;7.00;;;1.60;;
79149;SDS011;68563;45.644;13.782;2024-02-26T01:59:33;5.45;;;1.60;;
79149;SDS011;68563;45.644;13.782;2024-02-26T02:02:00;3.72;;;1.58;;
79149;SDS011;68563;45.644;13.782;2024-02-26T02:04:27;4.00;;;1.70;;
79149;SDS011;68563;45.644;13.782;2024-02-26T02:06:53;4.05;;;1.55;;
79149;SDS011;68563;45.644;13.782;2024-02-26T02:09:19;3.25;;;1.42;;
79149;SDS011;68563;45.644;13.782;2024-02-26T02:11:44;5.13;;;1.77;;
79149;SDS011;68563;45.644;13.782;2024-02-26T02:14:11;6.68;;;1.83;;
79149;SDS011;68563;45.644;13.782;2024-02-26T02:16:36;5.43;;;1.40;;
79149;SDS011;68563;45.644;13.782;2024-02-26T02:19:02;4.63;;;1.55;;
79149;SDS011;68563;45.644;13.782;2024-02-26T02:21:27;6.68;;;1.77;;
79149;SDS011;68563;45.644;13.782;2024-02-26T02:23:53;11.40;;;2.97;;
79149;SDS011;68563;45.644;13.782;2024-02-26T02:26:18;7.15;;;1.40;;
79149;SDS011;68563;45.644;13.782;2024-02-26T02:28:44;3.33;;;1.13;;
79149;SDS011;68563;45.644;13.782;2024-02-26T02:31:10;5.38;;;1.20;;
79149;SDS011;68563;45.644;13.782;2024-02-26T02:33:36;5.18;;;1.30;;
79149;SDS011;68563;45.644;13.782;2024-02-26T02:36:02;3.00;;;1.23;;
79149;SDS011;68563;45.644;13.782;2024-02-26T02:38:28;2.38;;;1.27;;
79149;SDS011;68563;45.644;13.782;2024-02-26T02:40:55;2.92;;;1.20;;
79149;SDS011;68563;45.644;13.782;2024-02-26T02:43:20;5.82;;;1.30;;
79149;SDS011;68563;45.644;13.782;2024-02-26T02:45:46;3.33;;;1.10;;
79149;SDS011;68563;45.644;13.782;2024-02-26T02:48:11;2.28;;;1.05;;
79149;SDS011;68563;45.644;13.782;2024-02-26T02:50:37;5.40;;;1.60;;
79149;SDS011;68563;45.644;13.782;2024-02-26T02:53:02;4.25;;;1.92;;
79149;SDS011;68563;45.644;13.782;2024-02-26T02:55:28;4.00;;;1.10;;
79149;SDS011;68563;45.644;13.782;2024-02-26T02:57:53;2.58;;;0.93;;
79149;SDS011;68563;45.644;13.782;2024-02-26T03:00:19;3.00;;;1.20;;
79149;SDS011;68563;45.644;13.782;2024-02-26T03:02:44;4.80;;;1.08;;
79149;SDS011;68563;45.644;13.782;2024-02-26T03:05:10;4.63;;;1.10;;
79149;SDS011;68563;45.644;13.782;2024-02-26T03:07:36;1.20;;;0.73;;
79149;SDS011;68563;45.644;13.782;2024-02-26T03:10:01;3.53;;;1.15;;
79149;SDS011;68563;45.644;13.782;2024-02-26T03:12:27;3.45;;;0.82;;
79149;SDS011;68563;45.644;13.782;2024-02-26T03:14:53;3.30;;;0.90;;
79149;SDS011;68563;45.644;13.782;2024-02-26T03:17:19;3.65;;;0.80;;
79149;SDS011;68563;45.644;13.782;2024-02-26T03:19:45;3.17;;;0.95;;
79149;SDS011;68563;45.644;13.782;2024-02-26T03:22:12;2.88;;;0.90;;
79149;SDS011;68563;45.644;13.782;2024-02-26T03:24:37;3.58;;;1.00;;
79149;SDS011;68563;45.644;13.782;2024-02-26T03:27:03;3.13;;;0.73;;
79149;SDS011;68563;45.644;13.782;2024-02-26T03:29:30;3.67;;;0.70;;
79149;SDS011;68563;45.644;13.782;2024-02-26T03:31:55;1.33;;;0.68;;
79149;SDS011;68563;45.644;13.782;2024-02-26T03:34:21;3.40;;;0.90;;
79149;SDS011;68563;45.644;13.782;2024-02-26T03:36:46;2.38;;;0.77;;
79149;SDS011;68563;45.644;13.782;2024-02-26T03:39:12;1.10;;;0.68;;
79149;SDS011;68563;45.644;13.782;2024-02-26T03:41:37;2.58;;;0.95;;
79149;SDS011;68563;45.644;13.782;2024-02-26T03:44:03;3.13;;;1.00;;
79149;SDS011;68563;45.644;13.782;2024-02-26T03:46:28;4.63;;;1.30;;
79149;SDS011;68563;45.644;13.782;2024-02-26T03:48:54;3.00;;;0.77;;
79149;SDS011;68563;45.644;13.782;2024-02-26T03:51:19;3.13;;;0.60;;
79149;SDS011;68563;45.644;13.782;2024-02-26T03:53:45;2.25;;;0.77;;
79149;SDS011;68563;45.644;13.782;2024-02-26T03:56:13;2.45;;;0.73;;
79149;SDS011;68563;45.644;13.782;2024-02-26T03:58:39;2.28;;;0.55;;
79149;SDS011;68563;45.644;13.782;2024-02-26T04:01:06;4.90;;;1.15;;
79149;SDS011;68563;45.644;13.782;2024-02-26T04:03:32;1.75;;;0.90;;
79149;SDS011;68563;45.644;13.782;2024-02-26T04:05:58;1.38;;;0.70;;
79149;SDS011;68563;45.644;13.782;2024-02-26T04:08:23;1.83;;;0.65;;
79149;SDS011;68563;45.644;13.782;2024-02-26T04:10:49;2.42;;;0.60;;
79149;SDS011;68563;45.644;13.782;2024-02-26T04:13:14;3.72;;;0.82;;
79149;SDS011;68563;45.644;13.782;2024-02-26T04:15:39;2.13;;;0.80;;
79149;SDS011;68563;45.644;13.782;2024-02-26T04:18:05;4.18;;;0.98;;
79149;SDS011;68563;45.644;13.782;2024-02-26T04:20:30;4.28;;;0.80;;
79149;SDS011;68563;45.644;13.782;2024-02-26T04:22:56;4.20;;;0.90;;
79149;SDS011;68563;45.644;13.782;2024-02-26T04:25:21;3.38;;;1.20;;
79149;SDS011;68563;45.644;13.782;2024-02-26T04:27:46;4.28;;;1.10;;
79149;SDS011;68563;45.644;13.782;2024-02-26T04:30:12;2.92;;;0.95;;
79149;SDS011;68563;45.644;13.782;2024-02-26T04:32:37;2.25;;;0.90;;
79149;SDS011;68563;45.644;13.782;2024-02-26T04:35:03;1.40;;;0.80;;
79149;SDS011;68563;45.644;13.782;2024-02-26T04:37:28;2.10;;;0.73;;
79149;SDS011;68563;45.644;13.782;2024-02-26T04:39:57;2.20;;;0.70;;
79149;SDS011;68563;45.644;13.782;2024-02-26T04:42:24;3.25;;;0.80;;
79149;SDS011;68563;45.644;13.782;2024-02-26T04:44:49;1.63;;;0.70;;
79149;SDS011;68563;45.644;13.782;2024-02-26T04:47:14;5.85;;;0.90;;
79149;SDS011;68563;45.644;13.782;2024-02-26T04:49:40;3.30;;;0.88;;
79149;SDS011;68563;45.644;13.782;2024-02-26T04:52:06;1.92;;;0.70;;
79149;SDS011;68563;45.644;13.782;2024-02-26T04:54:31;2.38;;;0.82;;
79149;SDS011;68563;45.644;13.782;2024-02-26T04:56:56;2.22;;;1.10;;
79149;SDS011;68563;45.644;13.782;2024-02-26T04:59:22;2.97;;;0.70;;
79149;SDS011;68563;45.644;13.782;2024-02-26T05:01:47;1.40;;;0.75;;
79149;SDS011;68563;45.644;13.782;2024-02-26T05:04:12;2.78;;;0.70;;
79149;SDS011;68563;45.644;13.782;2024-02-26T05:06:38;1.42;;;0.73;;
79149;SDS011;68563;45.644;13.782;2024-02-26T05:09:03;3.38;;;0.82;;
79149;SDS011;68563;45.644;13.782;2024-02-26T05:11:29;2.70;;;0.68;;
79149;SDS011;68563;45.644;13.782;2024-02-26T05:13:54;3.28;;;0.80;;
79149;SDS011;68563;45.644;13.782;2024-02-26T05:16:19;4.72;;;0.80;;
79149;SDS011;68563;45.644;13.782;2024-02-26T05:18:46;2.40;;;0.85;;
79149;SDS011;68563;45.644;13.782;2024-02-26T05:21:12;1.65;;;0.70;;
79149;SDS011;68563;45.644;13.782;2024-02-26T05:23:37;1.55;;;0.82;;
79149;SDS011;68563;45.644;13.782;2024-02-26T05:26:03;1.50;;;0.80;;
79149;SDS011;68563;45.644;13.782;2024-02-26T05:28:28;2.70;;;1.00;;
79149;SDS011;68563;45.644;13.782;2024-02-26T05:30:53;4.10;;;0.93;;
79149;SDS011;68563;45.644;13.782;2024-02-26T05:33:19;1.52;;;0.75;;
79149;SDS011;68563;45.644;13.782;2024-02-26T05:35:44;1.75;;;0.90;;
79149;SDS011;68563;45.644;13.782;2024-02-26T05:38:10;3.72;;;1.20;;
79149;SDS011;68563;45.644;13.782;2024-02-26T05:40:35;2.25;;;1.00;;
79149;SDS011;68563;45.644;13.782;2024-02-26T05:43:00;3.97;;;1.02;;
79149;SDS011;68563;45.644;13.782;2024-02-26T05:45:26;4.05;;;0.93;;
79149;SDS011;68563;45.644;13.782;2024-02-26T05:47:51;2.90;;;1.20;;
79149;SDS011;68563;45.644;13.782;2024-02-26T05:50:17;2.70;;;1.10;;
79149;SDS011;68563;45.644;13.782;2024-02-26T05:52:42;2.45;;;1.13;;
79149;SDS011;68563;45.644;13.782;2024-02-26T05:55:08;2.28;;;1.10;;
79149;SDS011;68563;45.644;13.782;2024-02-26T05:57:34;4.35;;;1.55;;
79149;SDS011;68563;45.644;13.782;2024-02-26T06:00:00;3.13;;;1.58;;
79149;SDS011;68563;45.644;13.782;2024-02-26T06:02:31;2.75;;;1.25;;
79149;SDS011;68563;45.644;13.782;2024-02-26T06:04:57;3.55;;;1.38;;
79149;SDS011;68563;45.644;13.782;2024-02-26T06:07:22;3.65;;;1.23;;
79149;SDS011;68563;45.644;13.782;2024-02-26T06:09:48;2.10;;;1.10;;
79149;SDS011;68563;45.644;13.782;2024-02-26T06:12:13;2.40;;;1.25;;
79149;SDS011;68563;45.644;13.782;2024-02-26T06:14:39;2.75;;;1.40;;
79149;SDS011;68563;45.644;13.782;2024-02-26T06:17:04;3.03;;;1.58;;
79149;SDS011;68563;45.644;13.782;2024-02-26T06:19:30;3.58;;;1.23;;
79149;SDS011;68563;45.644;13.782;2024-02-26T06:21:55;3.40;;;1.35;;
79149;SDS011;68563;45.644;13.782;2024-02-26T06:24:20;5.13;;;1.20;;
79149;SDS011;68563;45.644;13.782;2024-02-26T06:26:47;4.38;;;1.73;;
79149;SDS011;68563;45.644;13.782;2024-02-26T06:29:13;6.07;;;1.92;;
79149;SDS011;68563;45.644;13.782;2024-02-26T06:31:38;3.80;;;1.35;;
79149;SDS011;68563;45.644;13.782;2024-02-26T06:34:04;3.97;;;1.50;;
79149;SDS011;68563;45.644;13.782;2024-02-26T06:36:29;3.83;;;1.60;;
79149;SDS011;68563;45.644;13.782;2024-02-26T06:38:56;5.07;;;1.73;;
79149;SDS011;68563;45.644;13.782;2024-02-26T06:41:22;4.43;;;1.75;;
79149;SDS011;68563;45.644;13.782;2024-02-26T06:43:52;3.05;;;1.55;;
79149;SDS011;68563;45.644;13.782;2024-02-26T06:46:21;7.82;;;2.05;;
79149;SDS011;68563;45.644;13.782;2024-02-26T06:48:50;5.07;;;1.70;;
79149;SDS011;68563;45.644;13.782;2024-02-26T06:51:16;5.18;;;1.80;;
79149;SDS011;68563;45.644;13.782;2024-02-26T06:53:41;5.15;;;1.77;;
79149;SDS011;68563;45.644;13.782;2024-02-26T06:56:06;8.45;;;1.83;;
79149;SDS011;68563;45.644;13.782;2024-02-26T06:58:32;5.88;;;1.95;;
79149;SDS011;68563;45.644;13.782;2024-02-26T07:00:58;5.80;;;1.90;;
79149;SDS011;68563;45.644;13.782;2024-02-26T07:03:23;6.32;;;2.20;;
79149;SDS011;68563;45.644;13.782;2024-02-26T07:05:50;2.58;;;1.70;;
79149;SDS011;68563;45.644;13.782;2024-02-26T07:08:16;6.28;;;2.10;;
79149;SDS011;68563;45.644;13.782;2024-02-26T07:10:41;6.15;;;2.22;;
79149;SDS011;68563;45.644;13.782;2024-02-26T07:13:06;4.60;;;1.90;;
79149;SDS011;68563;45.644;13.782;2024-02-26T07:15:32;7.65;;;2.45;;
79149;SDS011;68563;45.644;13.782;2024-02-26T07:17:58;5.95;;;2.55;;
79149;SDS011;68563;45.644;13.782;2024-02-26T07:20:27;7.82;;;2.65;;
79149;SDS011;68563;45.644;13.782;2024-02-26T07:22:53;8.70;;;2.45;;
79149;SDS011;68563;45.644;13.782;2024-02-26T07:25:19;6.20;;;2.63;;
79149;SDS011;68563;45.644;13.782;2024-02-26T07:27:46;6.00;;;1.70;;
79149;SDS011;68563;45.644;13.782;2024-02-26T07:30:11;5.50;;;1.90;;
79149;SDS011;68563;45.644;13.782;2024-02-26T07:32:37;2.97;;;1.70;;
79149;SDS011;68563;45.644;13.782;2024-02-26T07:35:02;4.30;;;2.08;;
79149;SDS011;68563;45.644;13.782;2024-02-26T07:37:28;5.50;;;1.95;;
79149;SDS011;68563;45.644;13.782;2024-02-26T07:39:53;4.68;;;2.35;;
79149;SDS011;68563;45.644;13.782;2024-02-26T07:42:19;5.38;;;2.10;;
79149;SDS011;68563;45.644;13.782;2024-02-26T07:44:45;5.97;;;2.50;;
79149;SDS011;68563;45.644;13.782;2024-02-26T07:47:10;7.15;;;2.63;;
79149;SDS011;68563;45.644;13.782;2024-02-26T07:49:35;7.07;;;3.00;;
79149;SDS011;68563;45.644;13.782;2024-02-26T07:52:01;6.45;;;2.70;;
79149;SDS011;68563;45.644;13.782;2024-02-26T07:54:26;5.75;;;2.28;;
79149;SDS011;68563;45.644;13.782;2024-02-26T07:56:52;4.55;;;2.38;;
79149;SDS011;68563;45.644;13.782;2024-02-26T07:59:17;5.03;;;2.20;;
79149;SDS011;68563;45.644;13.782;2024-02-26T08:01:42;8.23;;;2.70;;
79149;SDS011;68563;45.644;13.782;2024-02-26T08:04:08;5.32;;;2.50;;
79149;SDS011;68563;45.644;13.782;2024-02-26T08:06:34;7.22;;;1.77;;
79149;SDS011;68563;45.644;13.782;2024-02-26T08:08:59;4.18;;;1.48;;
79149;SDS011;68563;45.644;13.782;2024-02-26T08:11:24;6.97;;;1.52;;
79149;SDS011;68563;45.644;13.782;2024-02-26T08:13:50;7.47;;;1.88;;
79149;SDS011;68563;45.644;13.782;2024-02-26T08:16:15;5.28;;;2.60;;
79149;SDS011;68563;45.644;13.782;2024-02-26T08:18:41;7.78;;;3.60;;
79149;SDS011;68563;45.644;13.782;2024-02-26T08:21:06;4.38;;;2.20;;
79149;SDS011;68563;45.644;13.782;2024-02-26T08:23:35;12.27;;;2.40;;
79149;SDS011;68563;45.644;13.782;2024-02-26T08:26:00;7.78;;;2.40;;
79149;SDS011;68563;45.644;13.782;2024-02-26T08:28:38;13.95;;;4.95;;
79149;SDS011;68563;45.644;13.782;2024-02-26T08:31:03;14.30;;;5.07;;
79149;SDS011;68563;45.644;13.782;2024-02-26T08:33:29;11.23;;;5.05;;
79149;SDS011;68563;45.644;13.782;2024-02-26T08:35:55;11.95;;;5.32;;
79149;SDS011;68563;45.644;13.782;2024-02-26T08:38:20;9.32;;;4.32;;
79149;SDS011;68563;45.644;13.782;2024-02-26T08:40:45;10.20;;;3.85;;
79149;SDS011;68563;45.644;13.782;2024-02-26T08:43:11;8.85;;;3.40;;
79149;SDS011;68563;45.644;13.782;2024-02-26T08:45:36;9.10;;;4.18;;
79149;SDS011;68563;45.644;13.782;2024-02-26T08:48:02;9.55;;;4.25;;
79149;SDS011;68563;45.644;13.782;2024-02-26T08:50:27;8.10;;;4.22;;
79149;SDS011;68563;45.644;13.782;2024-02-26T08:52:53;8.93;;;3.75;;
79149;SDS011;68563;45.644;13.782;2024-02-26T08:55:18;9.70;;;3.55;;
79149;SDS011;68563;45.644;13.782;2024-02-26T08:57:44;7.57;;;3.28;;
79149;SDS011;68563;45.644;13.782;2024-02-26T09:00:10;6.47;;;3.65;;
79149;SDS011;68563;45.644;13.782;2024-02-26T09:02:36;5.45;;;2.97;;
79149;SDS011;68563;45.644;13.782;2024-02-26T09:05:04;7.70;;;3.17;;
79149;SDS011;68563;45.644;13.782;2024-02-26T09:07:30;8.00;;;3.70;;
79149;SDS011;68563;45.644;13.782;2024-02-26T09:09:56;7.15;;;3.20;;
79149;SDS011;68563;45.644;13.782;2024-02-26T09:12:21;5.70;;;3.08;;
79149;SDS011;68563;45.644;13.782;2024-02-26T09:14:47;6.43;;;2.00;;
79149;SDS011;68563;45.644;13.782;2024-02-26T09:17:12;6.53;;;1.73;;
79149;SDS011;68563;45.644;13.782;2024-02-26T09:19:38;6.82;;;1.70;;
79149;SDS011;68563;45.644;13.782;2024-02-26T09:22:04;4.25;;;1.52;;
79149;SDS011;68563;45.644;13.782;2024-02-26T09:24:29;5.63;;;1.75;;
79149;SDS011;68563;45.644;13.782;2024-02-26T09:26:54;3.90;;;1.73;;
79149;SDS011;68563;45.644;13.782;2024-02-26T09:29:20;5.57;;;1.60;;
79149;SDS011;68563;45.644;13.782;2024-02-26T09:31:45;8.25;;;1.73;;
79149;SDS011;68563;45.644;13.782;2024-02-26T09:34:12;2.72;;;1.40;;
79149;SDS011;68563;45.644;13.782;2024-02-26T09:36:38;9.48;;;1.63;;
79149;SDS011;68563;45.644;13.782;2024-02-26T09:39:04;8.38;;;2.00;;
79149;SDS011;68563;45.644;13.782;2024-02-26T09:41:30;8.35;;;2.45;;
79149;SDS011;68563;45.644;13.782;2024-02-26T09:43:56;5.95;;;2.70;;
79149;SDS011;68563;45.644;13.782;2024-02-26T09:46:23;7.15;;;3.10;;
79149;SDS011;68563;45.644;13.782;2024-02-26T09:48:50;6.00;;;3.30;;
79149;SDS011;68563;45.644;13.782;2024-02-26T09:51:16;6.75;;;3.75;;
79149;SDS011;68563;45.644;13.782;2024-02-26T09:53:42;7.50;;;3.78;;
79149;SDS011;68563;45.644;13.782;2024-02-26T09:56:11;5.25;;;3.60;;
79149;SDS011;68563;45.644;13.782;2024-02-26T09:58:37;8.68;;;3.90;;
79149;SDS011;68563;45.644;13.782;2024-02-26T10:01:04;7.72;;;4.53;;
79149;SDS011;68563;45.644;13.782;2024-02-26T10:03:38;8.63;;;4.05;;
79149;SDS011;68563;45.644;13.782;2024-02-26T10:06:06;10.13;;;3.42;;
79149;SDS011;68563;45.644;13.782;2024-02-26T10:08:32;7.68;;;2.90;;
79149;SDS011;68563;45.644;13.782;2024-02-26T10:10:59;8.68;;;3.40;;
79149;SDS011;68563;45.644;13.782;2024-02-26T10:13:25;8.57;;;3.10;;
79149;SDS011;68563;45.644;13.782;2024-02-26T10:15:50;12.43;;;3.53;;
79149;SDS011;68563;45.644;13.782;2024-02-26T10:18:16;6.70;;;2.90;;
79149;SDS011;68563;45.644;13.782;2024-02-26T10:20:41;5.68;;;3.00;;
79149;SDS011;68563;45.644;13.782;2024-02-26T10:23:06;5.25;;;2.92;;
79149;SDS011;68563;45.644;13.782;2024-02-26T10:25:32;6.32;;;3.35;;
79149;SDS011;68563;45.644;13.782;2024-02-26T10:28:01;5.45;;;2.90;;
79149;SDS011;68563;45.644;13.782;2024-02-26T10:30:27;8.63;;;3.38;;
79149;SDS011;68563;45.644;13.782;2024-02-26T10:32:53;7.50;;;3.38;;
79149;SDS011;68563;45.644;13.782;2024-02-26T10:35:19;8.55;;;3.13;;
79149;SDS011;68563;45.644;13.782;2024-02-26T10:37:48;8.80;;;3.22;;
79149;SDS011;68563;45.644;13.782;2024-02-26T10:40:15;5.10;;;3.00;;
79149;SDS011;68563;45.644;13.782;2024-02-26T10:42:41;9.88;;;2.83;;
79149;SDS011;68563;45.644;13.782;2024-02-26T10:45:08;6.65;;;2.90;;
79149;SDS011;68563;45.644;13.782;2024-02-26T10:47:37;12.10;;;6.85;;
79149;SDS011;68563;45.644;13.782;2024-02-26T10:50:05;10.85;;;5.47;;
79149;SDS011;68563;45.644;13.782;2024-02-26T10:52:32;7.30;;;4.30;;
79149;SDS011;68563;45.644;13.782;2024-02-26T10:55:00;6.53;;;4.00;;
79149;SDS011;68563;45.644;13.782;2024-02-26T10:57:38;5.22;;;2.50;;
79149;SDS011;68563;45.644;13.782;2024-02-26T11:00:05;5.53;;;2.70;;
79149;SDS011;68563;45.644;13.782;2024-02-26T11:02:33;3.63;;;1.80;;
79149;SDS011;68563;45.644;13.782;2024-02-26T11:05:05;8.40;;;1.77;;
79149;SDS011;68563;45.644;13.782;2024-02-26T11:07:32;3.70;;;1.60;;
79149;SDS011;68563;45.644;13.782;2024-02-26T11:09:59;3.00;;;1.35;;
79149;SDS011;68563;45.644;13.782;2024-02-26T11:12:25;1.98;;;1.30;;
79149;SDS011;68563;45.644;13.782;2024-02-26T11:14:54;2.95;;;1.30;;
79149;SDS011;68563;45.644;13.782;2024-02-26T11:17:22;5.68;;;1.25;;
79149;SDS011;68563;45.644;13.782;2024-02-26T11:19:49;3.85;;;1.23;;
79149;SDS011;68563;45.644;13.782;2024-02-26T11:22:16;2.35;;;1.40;;
79149;SDS011;68563;45.644;13.782;2024-02-26T11:24:42;4.43;;;1.67;;
79149;SDS011;68563;45.644;13.782;2024-02-26T11:27:09;5.75;;;1.20;;
79149;SDS011;68563;45.644;13.782;2024-02-26T11:29:40;3.88;;;1.15;;
79149;SDS011;68563;45.644;13.782;2024-02-26T11:32:09;2.75;;;0.85;;
79149;SDS011;68563;45.644;13.782;2024-02-26T11:34:35;4.65;;;1.08;;
79149;SDS011;68563;45.644;13.782;2024-02-26T11:37:11;3.55;;;1.30;;
79149;SDS011;68563;45.644;13.782;2024-02-26T11:39:40;4.38;;;0.93;;
79149;SDS011;68563;45.644;13.782;2024-02-26T11:42:09;3.47;;;0.80;;
79149;SDS011;68563;45.644;13.782;2024-02-26T11:44:38;2.45;;;0.68;;
79149;SDS011;68563;45.644;13.782;2024-02-26T11:49:59;3.42;;;1.10;;
79149;SDS011;68563;45.644;13.782;2024-02-26T11:55:45;2.13;;;0.60;;
79149;SDS011;68563;45.644;13.782;2024-02-26T11:58:10;2.65;;;0.70;;
79149;SDS011;68563;45.644;13.782;2024-02-26T12:00:36;3.53;;;0.85;;
79149;SDS011;68563;45.644;13.782;2024-02-26T12:03:01;1.98;;;0.73;;
79149;SDS011;68563;45.644;13.782;2024-02-26T12:05:33;8.10;;;1.10;;
79149;SDS011;68563;45.644;13.782;2024-02-26T12:08:02;1.70;;;0.90;;
79149;SDS011;68563;45.644;13.782;2024-02-26T12:10:32;2.67;;;0.70;;
79149;SDS011;68563;45.644;13.782;2024-02-26T12:13:08;3.17;;;0.80;;
79149;SDS011;68563;45.644;13.782;2024-02-26T12:15:38;2.78;;;0.65;;
79149;SDS011;68563;45.644;13.782;2024-02-26T12:18:07;4.28;;;0.88;;
79149;SDS011;68563;45.644;13.782;2024-02-26T12:20:35;3.60;;;0.82;;
79149;SDS011;68563;45.644;13.782;2024-02-26T12:23:01;4.25;;;1.40;;
79149;SDS011;68563;45.644;13.782;2024-02-26T12:25:30;2.25;;;1.08;;
79149;SDS011;68563;45.644;13.782;2024-02-26T12:27:56;3.78;;;1.08;;
79149;SDS011;68563;45.644;13.782;2024-02-26T12:30:22;5.22;;;1.13;;
79149;SDS011;68563;45.644;13.782;2024-02-26T12:32:49;2.17;;;0.80;;
79149;SDS011;68563;45.644;13.782;2024-02-26T12:35:15;2.17;;;0.70;;
79149;SDS011;68563;45.644;13.782;2024-02-26T12:37:41;2.88;;;0.95;;
79149;SDS011;68563;45.644;13.782;2024-02-26T12:40:09;3.10;;;0.90;;
79149;SDS011;68563;45.644;13.782;2024-02-26T12:42:35;3.72;;;0.70;;
79149;SDS011;68563;45.644;13.782;2024-02-26T12:45:11;2.47;;;0.70;;
79149;SDS011;68563;45.644;13.782;2024-02-26T12:47:41;3.70;;;1.05;;
79149;SDS011;68563;45.644;13.782;2024-02-26T12:50:08;3.17;;;1.05;;
79149;SDS011;68563;45.644;13.782;2024-02-26T12:52:36;2.83;;;0.90;;
79149;SDS011;68563;45.644;13.782;2024-02-26T12:55:04;1.90;;;1.00;;
79149;SDS011;68563;45.644;13.782;2024-02-26T12:57:34;4.95;;;1.05;;
79149;SDS011;68563;45.644;13.782;2024-02-26T13:00:02;3.42;;;0.93;;
79149;SDS011;68563;45.644;13.782;2024-02-26T13:02:29;1.70;;;0.85;;
79149;SDS011;68563;45.644;13.782;2024-02-26T13:04:56;2.50;;;1.20;;
79149;SDS011;68563;45.644;13.782;2024-02-26T13:07:23;3.67;;;1.40;;
79149;SDS011;68563;45.644;13.782;2024-02-26T13:09:48;3.38;;;1.00;;
79149;SDS011;68563;45.644;13.782;2024-02-26T13:12:15;2.53;;;1.83;;
79149;SDS011;68563;45.644;13.782;2024-02-26T13:14:42;3.13;;;1.10;;
79149;SDS011;68563;45.644;13.782;2024-02-26T13:17:08;2.78;;;1.20;;
79149;SDS011;68563;45.644;13.782;2024-02-26T13:19:33;4.18;;;1.10;;
79149;SDS011;68563;45.644;13.782;2024-02-26T13:22:05;2.05;;;1.30;;
79149;SDS011;68563;45.644;13.782;2024-02-26T13:24:32;2.90;;;1.10;;
79149;SDS011;68563;45.644;13.782;2024-02-26T13:26:58;4.55;;;1.20;;
79149;SDS011;68563;45.644;13.782;2024-02-26T13:29:23;2.13;;;0.90;;
79149;SDS011;68563;45.644;13.782;2024-02-26T13:31:57;2.63;;;0.90;;
79149;SDS011;68563;45.644;13.782;2024-02-26T13:34:27;2.42;;;0.93;;
79149;SDS011;68563;45.644;13.782;2024-02-26T13:36:55;4.03;;;1.50;;
79149;SDS011;68563;45.644;13.782;2024-02-26T13:39:24;8.10;;;1.42;;
79149;SDS011;68563;45.644;13.782;2024-02-26T13:41:51;9.13;;;1.50;;
79149;SDS011;68563;45.644;13.782;2024-02-26T13:44:17;4.30;;;2.00;;
79149;SDS011;68563;45.644;13.782;2024-02-26T13:46:42;4.95;;;1.52;;
79149;SDS011;68563;45.644;13.782;2024-02-26T13:49:08;4.57;;;1.58;;
79149;SDS011;68563;45.644;13.782;2024-02-26T13:51:35;2.67;;;1.17;;
79149;SDS011;68563;45.644;13.782;2024-02-26T13:54:02;5.40;;;1.20;;
79149;SDS011;68563;45.644;13.782;2024-02-26T13:56:28;4.30;;;1.00;;
79149;SDS011;68563;45.644;13.782;2024-02-26T13:58:53;4.03;;;1.20;;
79149;SDS011;68563;45.644;13.782;2024-02-26T14:01:19;5.72;;;1.25;;
79149;SDS011;68563;45.644;13.782;2024-02-26T14:03:44;6.20;;;1.23;;
79149;SDS011;68563;45.644;13.782;2024-02-26T14:06:10;2.28;;;1.10;;
79149;SDS011;68563;45.644;13.782;2024-02-26T14:08:35;3.03;;;1.10;;
79149;SDS011;68563;45.644;13.782;2024-02-26T14:11:01;2.63;;;1.38;;
79149;SDS011;68563;45.644;13.782;2024-02-26T14:13:26;6.10;;;0.93;;
79149;SDS011;68563;45.644;13.782;2024-02-26T14:15:52;2.58;;;0.80;;
79149;SDS011;68563;45.644;13.782;2024-02-26T14:18:17;3.13;;;0.98;;
79149;SDS011;68563;45.644;13.782;2024-02-26T14:20:43;1.77;;;0.73;;
79149;SDS011;68563;45.644;13.782;2024-02-26T14:23:09;2.05;;;1.02;;
79149;SDS011;68563;45.644;13.782;2024-02-26T14:25:35;2.05;;;0.85;;
79149;SDS011;68563;45.644;13.782;2024-02-26T14:28:01;3.10;;;1.00;;
79149;SDS011;68563;45.644;13.782;2024-02-26T14:30:27;2.55;;;0.85;;
79149;SDS011;68563;45.644;13.782;2024-02-26T14:32:52;1.30;;;0.80;;